PROFILE

 METAR AND TAF INFORMATION
ADDS - METARS form results

(0407 UTC 25 April 2019)
http://aviationweather.gov/metar/data/
 
EIDW 250400Z 13006KT 100V160 9999 FEW008 SCT040 08/07 Q0992 NOSIG
EIDW 250330Z 13007KT 9999 FEW008 SCT040 07/06 Q0992 NOSIG
TAF EIDW 242300Z 2500/2524 15008KT 8000 FEW012 SCT030 TEMPO 2500/2508 1200 BR BKN004 PROB30 TEMPO 2500/2507 0400 FG BKN001 BECMG 2505/2508 10010KT TEMPO 2510/2512 5000 -RA BKN010 BECMG 2512/2515 15014KT TEMPO 2513/2515 16016G28KT TEMPO 2522/2524 BKN009 

 AIRPORT MAP

 RUNWAY INFORMATION
Runway 10 Runway length 8652 ft Runway width 148 ft
Runway elevation 242 ft Runway displaced threshold 0 ft Runway heading 95
Runway 28 Runway length 8652 ft Runway width 148 ft
Runway elevation 202 ft Runway displaced threshold 0 ft Runway heading 275
Runway 11 Runway length 4393 ft Runway width 200 ft
Runway elevation 217 ft Runway displaced threshold 279 ft Runway heading 105
Runway 29 Runway length 4393 ft Runway width 200 ft
Runway elevation 216 ft Runway displaced threshold 0 ft Runway heading 285
Runway 16 Runway length 6798 ft Runway width 200 ft
Runway elevation 217 ft Runway displaced threshold 0 ft Runway heading 157
Runway 34 Runway length 6798 ft Runway width 200 ft
Runway elevation 202 ft Runway displaced threshold 0 ft Runway heading 337

 AIRPORT FREQUENCIES
Type APP Name APP Frequency 121.1 MHZ
Type ATIS Name ATIS Frequency 124.525 MHZ
Type CLD Name CLNC DEL Frequency 121.875 MHZ
Type GND Name GND Frequency 121.8 MHZ
Type INFO Name FIS Frequency 118.5 MHZ
Type TWR Name TWR Frequency 118.6 MHZ

 AIRPORT NEAR NAVIGATION AIDS
Type VOR-DME Name Dublin Frequency 111200 KHZ
Type VOR-DME Name Dublin Frequency 114900 KHZ
Type NDB Name Garristown Frequency 407 KHZ
Type NDB-DME Name Gormanston Frequency 334 KHZ
Type DME Name Dublin Frequency 108900 KHZ
Type NDB Name Killiney Frequency 378 KHZ
Type NDB Name Rush Frequency 326 KHZ